Time;durP1;ratioP1;P1;durP2;ratioP2;P2;SDS_P1;SDS_P2;PMS_P1;PMS_P2;Temp;Humidity;BMP_temperature;BMP_pressure;BME280_temperature;BME280_humidity;BME280_pressure;Samples;Min_cycle;Max_cycle;Signal;HPM_P1;HPM_P2
2022/09/01 00:26:10;;;;;;;;;19.25;16.50;;;;;21.61;57.64;101430.56;3745221;27;51162;-69
2022/09/01 00:28:36;;;;;;;;;20.00;20.00;;;;;21.56;57.75;101433.31;5107825;27;50467;-69
2022/09/01 00:31:03;;;;;;;;;17.75;17.75;;;;;21.55;57.75;101430.69;5108260;27;49533;-69
2022/09/01 00:33:28;;;;;;;;;18.25;18.25;;;;;21.45;57.48;101416.56;5108561;27;49394;-69
2022/09/01 00:35:54;;;;;;;;;16.00;15.00;;;;;21.50;57.76;101421.81;5107738;27;49300;-69
2022/09/01 00:38:19;;;;;;;;;18.00;17.00;;;;;21.49;57.53;101420.06;5107196;27;49540;-69
2022/09/01 00:40:45;;;;;;;;;16.00;16.00;;;;;21.46;57.74;101415.66;5107901;27;49326;-70
2022/09/01 00:43:37;;;;;;;;;18.50;16.50;;;;;21.53;57.81;101421.81;5120229;27;49426;-69
2022/09/01 00:46:04;;;;;;;;;16.50;15.75;;;;;21.55;57.34;101439.56;5107984;27;49573;-69
2022/09/01 00:48:30;;;;;;;;;19.00;17.25;;;;;21.56;57.81;101429.78;5108482;27;50259;-69
2022/09/01 00:50:56;;;;;;;;;19.75;17.75;;;;;21.41;57.38;101404.13;5123556;27;49589;-68
2022/09/01 00:53:22;;;;;;;;;14.25;13.25;;;;;21.43;57.50;101411.25;5107896;27;49562;-69
2022/09/01 00:55:47;;;;;;;;;15.50;13.50;;;;;21.47;57.55;101420.09;5107795;27;49719;-69
2022/09/01 00:58:13;;;;;;;;;20.50;18.25;;;;;21.43;57.42;101408.56;5104664;27;50283;-69
2022/09/01 01:00:39;;;;;;;;;15.75;15.25;;;;;21.43;57.39;101407.69;5104146;27;49847;-69
2022/09/01 01:03:09;;;;;;;;;16.75;16.75;;;;;21.47;57.53;101417.41;5108172;27;49691;-69
2022/09/01 01:05:39;;;;;;;;;16.50;16.00;;;;;21.35;57.68;101401.56;5107128;27;49701;-69
2022/09/01 01:08:06;;;;;;;;;18.50;16.00;;;;;21.29;57.96;101391.84;5107273;27;49644;-69
2022/09/01 01:10:36;;;;;;;;;17.25;16.75;;;;;21.33;57.71;101396.25;5107525;27;49287;-68
2022/09/01 01:13:07;;;;;;;;;17.75;16.50;;;;;21.31;57.82;101394.47;5107169;27;49189;-68
2022/09/01 01:15:33;;;;;;;;;17.00;16.00;;;;;21.33;57.82;101404.25;5108050;27;49503;-69
2022/09/01 01:17:58;;;;;;;;;18.00;16.25;;;;;21.25;57.97;101386.53;5107700;27;50790;-68
2022/09/01 01:23:23;;;;;;;;;19.75;15.25;;;;;21.26;58.18;101404.31;5107926;27;49424;-68
2022/09/01 01:25:57;;;;;;;;;23.25;21.25;;;;;21.22;58.64;101407.91;5123626;27;49625;-68
2022/09/01 01:28:31;;;;;;;;;18.75;17.25;;;;;21.05;58.76;101395.69;5107269;27;50768;-68
2022/09/01 01:31:10;;;;;;;;;20.75;19.50;;;;;21.13;58.77;101406.25;5104762;27;49607;-69
2022/09/01 01:33:40;;;;;;;;;21.25;19.75;;;;;21.02;58.83;101394.81;5107270;27;49538;-68
2022/09/01 01:36:13;;;;;;;;;18.50;18.00;;;;;21.05;58.74;101411.72;5087168;27;49339;-68
2022/09/01 01:38:43;;;;;;;;;15.25;15.25;;;;;21.05;58.83;101414.38;5100900;27;49918;-68
2022/09/01 01:41:13;;;;;;;;;15.25;15.00;;;;;21.03;59.04;101413.47;5104597;27;49443;-68
2022/09/01 01:43:39;;;;;;;;;16.00;14.75;;;;;20.91;58.92;101399.41;5106390;27;49407;-68
2022/09/01 01:46:07;;;;;;;;;15.25;14.25;;;;;20.90;59.13;101395.84;5107372;27;49269;-68
2022/09/01 01:48:36;;;;;;;;;18.00;18.00;;;;;20.96;59.18;101414.47;5107203;27;50521;-68
2022/09/01 01:51:03;;;;;;;;;19.25;17.50;;;;;20.87;59.03;101393.22;5106085;27;49456;-68
2022/09/01 01:53:29;;;;;;;;;15.25;14.75;;;;;20.90;59.35;101405.66;5106261;27;49790;-69
2022/09/01 01:55:57;;;;;;;;;19.25;18.75;;;;;20.92;59.63;101412.72;5106657;27;49495;-68
2022/09/01 01:58:24;;;;;;;;;18.75;17.75;;;;;20.91;59.51;101407.41;5105264;27;51574;-68
2022/09/01 02:00:51;;;;;;;;;15.00;14.50;;;;;20.91;59.44;101410.97;5107317;27;49340;-68
2022/09/01 02:03:20;;;;;;;;;17.25;17.25;;;;;20.83;59.63;101405.72;5106160;27;49763;-68
2022/09/01 02:05:48;;;;;;;;;14.00;13.00;;;;;20.92;59.66;101417.19;5105456;27;50223;-68
2022/09/01 02:08:14;;;;;;;;;17.75;16.00;;;;;20.92;59.56;101420.75;5106397;27;50305;-68
2022/09/01 02:10:43;;;;;;;;;14.25;13.25;;;;;20.91;59.43;101416.31;5106008;27;49324;-68
2022/09/01 02:13:15;;;;;;;;;19.00;15.25;;;;;20.93;59.24;101424.28;5106435;27;49928;-68
2022/09/01 02:15:44;;;;;;;;;18.25;17.25;;;;;20.83;59.42;101404.81;5106443;27;49410;-68
2022/09/01 02:18:16;;;;;;;;;15.00;13.25;;;;;20.88;59.85;101419.03;5105761;27;49766;-68
2022/09/01 02:20:43;;;;;;;;;14.00;13.75;;;;;20.87;59.74;101422.59;5106160;27;49895;-68
2022/09/01 02:23:10;;;;;;;;;14.75;14.25;;;;;20.86;59.86;101428.84;5106291;27;49188;-68
2022/09/01 02:25:41;;;;;;;;;13.50;13.25;;;;;20.83;60.13;101423.50;5106587;27;49663;-68
2022/09/01 02:28:08;;;;;;;;;14.00;14.00;;;;;20.78;59.72;101423.56;5105014;27;50378;-68
2022/09/01 02:30:36;;;;;;;;;18.25;17.75;;;;;20.81;59.98;101425.31;5106941;27;49578;-68
2022/09/01 02:33:02;;;;;;;;;15.75;15.75;;;;;20.79;60.05;101421.78;5106383;27;49444;-68
2022/09/01 02:35:30;;;;;;;;;14.75;14.75;;;;;20.67;60.15;101414.81;5103452;27;49407;-69
2022/09/01 02:37:59;;;;;;;;;13.25;13.25;;;;;20.65;59.94;101424.59;5105773;27;49736;-68
2022/09/01 02:40:30;;;;;;;;;14.00;13.25;;;;;20.64;60.12;101417.47;5106437;27;50047;-68
2022/09/01 02:42:58;;;;;;;;;15.50;14.50;;;;;20.68;60.25;101421.91;5103741;27;49669;-68
2022/09/01 02:45:25;;;;;;;;;14.50;13.50;;;;;20.69;60.18;101431.66;5105628;27;49627;-68
2022/09/01 02:47:51;;;;;;;;;14.25;14.25;;;;;20.64;60.31;101419.25;5105799;27;50219;-69
2022/09/01 02:50:17;;;;;;;;;16.25;14.25;;;;;20.67;60.34;101424.59;5105655;27;49626;-69
2022/09/01 02:52:47;;;;;;;;;17.00;13.00;;;;;20.58;60.20;101412.22;5106155;27;49673;-69
2022/09/01 02:55:16;;;;;;;;;17.50;16.25;;;;;20.57;60.90;101418.47;5105973;27;49498;-69
2022/09/01 02:57:41;;;;;;;;;12.00;12.00;;;;;20.54;60.43;101416.69;5105591;27;50260;-69
2022/09/01 03:00:19;;;;;;;;;16.75;13.75;;;;;20.51;60.66;101413.19;5104304;27;52142;-69
2022/09/01 03:02:47;;;;;;;;;16.25;16.25;;;;;20.41;60.79;101400.81;5105655;27;49623;-68
2022/09/01 03:05:15;;;;;;;;;14.75;14.00;;;;;20.49;61.15;101426.53;5103168;27;49759;-69
2022/09/01 03:07:41;;;;;;;;;13.25;13.25;;;;;20.42;61.16;101410.56;5105877;27;50230;-68
2022/09/01 03:10:08;;;;;;;;;15.25;13.25;;;;;20.37;61.29;101405.28;5105632;27;49466;-68
2022/09/01 03:12:34;;;;;;;;;15.50;15.00;;;;;20.36;61.28;101411.50;5105953;27;49668;-68
2022/09/01 03:14:59;;;;;;;;;13.00;13.00;;;;;20.24;61.50;101396.50;5104093;27;49718;-69
2022/09/01 03:17:24;;;;;;;;;12.25;12.25;;;;;20.34;61.50;101407.97;5120749;27;56637;-68
2022/09/01 03:19:50;;;;;;;;;12.00;12.00;;;;;20.31;61.32;101408.00;5109387;27;57094;-68
2022/09/01 03:22:16;;;;;;;;;18.50;17.25;;;;;20.33;61.48;101414.19;5110225;27;49218;-69
2022/09/01 03:24:41;;;;;;;;;12.75;12.75;;;;;20.25;61.59;101405.38;5109622;27;49286;-68
2022/09/01 03:27:07;;;;;;;;;12.75;12.75;;;;;20.19;61.59;101389.47;5108519;27;49499;-68
2022/09/01 03:29:33;;;;;;;;;16.25;14.50;;;;;20.21;61.83;101399.19;5107898;27;49636;-69
2022/09/01 03:31:58;;;;;;;;;13.00;13.00;;;;;20.19;61.83;101408.13;5109762;27;49320;-69
2022/09/01 03:34:25;;;;;;;;;14.00;13.75;;;;;20.12;61.73;101406.38;5109374;27;49326;-69
2022/09/01 03:36:51;;;;;;;;;12.25;12.25;;;;;20.06;62.16;101401.97;5108945;27;49762;-68
2022/09/01 03:39:18;;;;;;;;;11.75;11.75;;;;;20.10;62.29;101406.41;5108758;27;49470;-68
2022/09/01 03:41:43;;;;;;;;;13.00;13.00;;;;;19.99;62.53;101393.16;5108676;27;49772;-68
2022/09/01 03:44:12;;;;;;;;;13.75;11.75;;;;;20.03;62.39;101399.34;5109021;27;49681;-68
2022/09/01 03:46:39;;;;;;;;;14.75;14.00;;;;;19.97;62.38;101386.06;5108582;27;49939;-68
2022/09/01 03:49:06;;;;;;;;;14.25;12.75;;;;;19.85;62.94;101370.19;5109556;27;49763;-68
2022/09/01 03:51:32;;;;;;;;;13.75;13.75;;;;;19.69;63.29;101362.31;5109114;27;49135;-68
2022/09/01 03:53:58;;;;;;;;;13.50;13.25;;;;;19.83;63.60;101387.97;5109312;27;49605;-68
2022/09/01 03:56:26;;;;;;;;;15.25;13.00;;;;;19.82;64.07;101403.06;5108348;27;49716;-68
2022/09/01 03:58:53;;;;;;;;;17.25;13.25;;;;;19.75;64.82;101385.34;5108309;27;49387;-68
2022/09/01 04:01:18;;;;;;;;;12.50;10.75;;;;;19.71;65.31;101386.28;5108822;27;49933;-68
2022/09/01 04:03:46;;;;;;;;;13.00;11.25;;;;;19.81;65.12;101393.31;5109103;27;49489;-68
2022/09/01 04:06:12;;;;;;;;;15.00;11.50;;;;;19.57;65.55;101356.16;5105403;27;49726;-68
2022/09/01 04:08:38;;;;;;;;;14.00;14.00;;;;;19.70;65.96;101380.06;5107660;27;49641;-68
2022/09/01 04:11:22;;;;;;;;;14.50;13.50;;;;;19.77;65.76;101403.97;5107643;27;49812;-68
2022/09/01 04:13:49;;;;;;;;;12.75;12.00;;;;;19.69;66.22;101388.06;5109072;27;49388;-70
2022/09/01 04:19:18;;;;;;;;;14.75;12.75;;;;;19.67;66.34;101382.72;5108374;27;49480;-68
2022/09/01 04:21:45;;;;;;;;;11.50;11.00;;;;;19.66;66.52;101375.63;5107404;27;49436;-68
2022/09/01 04:24:13;;;;;;;;;14.00;14.00;;;;;19.70;66.13;101381.84;5108445;27;49588;-68
2022/09/01 04:26:40;;;;;;;;;14.50;13.00;;;;;19.63;66.68;101374.78;5108134;27;49467;-68
2022/09/01 04:29:08;;;;;;;;;11.50;11.50;;;;;19.67;66.51;101373.84;5103844;27;50053;-69
2022/09/01 04:31:37;;;;;;;;;18.50;16.25;;;;;19.66;66.66;101382.75;5108431;27;50047;-68
2022/09/01 04:34:11;;;;;;;;;14.50;13.50;;;;;19.64;66.60;101380.09;5108127;27;49710;-68
2022/09/01 04:36:40;;;;;;;;;15.50;14.00;;;;;19.64;66.92;101382.75;5123969;27;51040;-68
2022/09/01 04:39:07;;;;;;;;;13.25;12.00;;;;;19.59;66.91;101373.94;5107938;27;49784;-69
2022/09/01 04:41:36;;;;;;;;;14.50;14.50;;;;;19.66;67.01;101390.75;5105251;27;49861;-68
2022/09/01 04:44:03;;;;;;;;;15.75;15.75;;;;;19.65;67.05;101388.97;5108355;27;49843;-69
2022/09/01 04:46:31;;;;;;;;;18.75;17.25;;;;;19.53;66.82;101363.28;5108151;27;49958;-68
2022/09/01 04:48:58;;;;;;;;;15.00;14.00;;;;;19.60;67.30;101377.47;5108190;27;49548;-69
2022/09/01 04:51:26;;;;;;;;;18.75;17.00;;;;;19.56;67.20;101381.03;5106337;27;49546;-68
2022/09/01 04:53:53;;;;;;;;;13.75;13.75;;;;;19.45;67.19;101352.66;5108102;27;49453;-68
2022/09/01 04:56:21;;;;;;;;;15.25;14.50;;;;;19.63;67.23;101388.09;5107649;27;52062;-68
2022/09/01 04:58:48;;;;;;;;;16.50;16.50;;;;;19.64;67.05;101384.53;5088123;27;49487;-68
2022/09/01 05:01:16;;;;;;;;;16.00;14.00;;;;;19.61;67.26;101385.47;5088222;27;49429;-68
2022/09/01 05:03:41;;;;;;;;;18.25;16.50;;;;;19.41;67.26;101337.63;5086067;27;49442;-69
2022/09/01 05:06:13;;;;;;;;;17.25;17.25;;;;;19.52;67.40;101373.94;5088131;27;50405;-68
2022/09/01 05:08:40;;;;;;;;;19.75;17.75;;;;;19.55;67.51;101381.91;5088640;27;49743;-68
2022/09/01 05:11:10;;;;;;;;;14.50;14.50;;;;;19.57;67.35;101380.13;5088332;27;49708;-68
2022/09/01 05:13:38;;;;;;;;;19.75;16.25;;;;;19.60;67.45;101383.69;5073693;27;49710;-68
2022/09/01 05:16:11;;;;;;;;;19.75;15.75;;;;;19.54;67.58;101388.13;5071025;27;50889;-68
2022/09/01 05:18:39;;;;;;;;;13.00;11.75;;;;;19.57;67.64;101393.44;5070614;27;49728;-68
2022/09/01 05:21:10;;;;;;;;;13.00;13.00;;;;;19.43;67.36;101370.44;5072180;27;49867;-70
2022/09/01 05:23:39;;;;;;;;;14.25;13.25;;;;;19.30;67.54;101338.53;5073015;27;49874;-72
2022/09/01 05:26:15;;;;;;;;;14.00;13.50;;;;;19.43;66.82;101366.88;5074051;27;51673;-68
2022/09/01 05:28:42;;;;;;;;;18.50;15.25;;;;;19.57;66.98;101383.69;5085735;27;49754;-69
2022/09/01 05:31:08;;;;;;;;;16.25;15.25;;;;;19.32;66.79;101315.50;5091660;27;49686;-69
2022/09/01 05:33:35;;;;;;;;;18.75;17.25;;;;;19.77;66.16;101394.22;5095222;27;49830;-70
2022/09/01 05:36:07;;;;;;;;;16.00;15.00;;;;;19.81;66.39;101389.75;5090829;27;52786;-69
2022/09/01 05:38:33;;;;;;;;;14.75;12.00;;;;;19.72;66.12;101367.63;5097167;27;49733;-69
2022/09/01 05:41:02;;;;;;;;;16.50;14.00;;;;;19.82;66.09;101389.75;5091704;27;50156;-68
2022/09/01 05:43:29;;;;;;;;;18.00;15.00;;;;;19.84;65.89;101390.63;5092597;27;49885;-69
2022/09/01 05:45:57;;;;;;;;;18.50;13.25;;;;;19.88;65.67;101381.72;5093131;27;49833;-69
2022/09/01 05:48:23;;;;;;;;;12.75;12.25;;;;;19.62;65.52;101327.75;5094350;27;50147;-65
2022/09/01 05:50:51;;;;;;;;;12.75;12.75;;;;;20.02;65.32;101402.91;5090961;27;49770;-68
2022/09/01 05:53:16;;;;;;;;;14.00;14.00;;;;;19.94;65.05;101383.44;5098322;27;49759;-69
2022/09/01 05:55:44;;;;;;;;;17.75;16.50;;;;;19.93;65.45;101389.66;5081644;27;49753;-68
2022/09/01 05:58:13;;;;;;;;;17.25;15.25;;;;;19.85;65.72;101375.50;5082164;27;49842;-66
2022/09/01 06:00:45;;;;;;;;;15.50;14.50;;;;;19.76;65.30;101356.94;5070595;27;49636;-69
2022/09/01 06:03:13;;;;;;;;;19.75;16.50;;;;;19.87;65.42;101385.25;5096249;27;49951;-68
2022/09/01 06:05:39;;;;;;;;;16.00;12.75;;;;;19.96;65.48;101385.19;5108116;27;50086;-68
2022/09/01 06:08:06;;;;;;;;;18.75;14.50;;;;;19.86;64.85;101367.50;5105343;27;49835;-69
2022/09/01 06:10:37;;;;;;;;;16.00;15.75;;;;;19.87;64.72;101368.38;5088882;27;49781;-67
2022/09/01 06:13:02;;;;;;;;;16.75;14.75;;;;;19.98;64.83;101379.88;5071915;27;49898;-68
2022/09/01 06:15:31;;;;;;;;;14.25;14.00;;;;;20.06;64.42;101380.66;5080461;27;50815;-66
2022/09/01 06:17:57;;;;;;;;;17.50;16.25;;;;;20.11;64.40;101389.50;5070182;27;49684;-65
2022/09/01 06:20:23;;;;;;;;;16.50;14.50;;;;;20.21;63.91;101377.88;5069653;27;50000;-65
2022/09/01 06:22:48;;;;;;;;;13.50;11.00;;;;;20.17;63.47;101362.81;5078105;27;49976;-66
2022/09/01 06:25:17;;;;;;;;;13.25;11.00;;;;;20.37;63.54;101401.75;5082008;27;51077;-65
2022/09/01 06:27:43;;;;;;;;;14.00;13.75;;;;;20.34;63.16;101394.63;5090594;27;49810;-65
2022/09/01 06:30:13;;;;;;;;;12.75;10.00;;;;;20.43;63.09;101393.69;5090463;27;49798;-66
2022/09/01 06:32:42;;;;;;;;;15.75;15.00;;;;;20.27;62.99;101372.50;5091019;27;49773;-68
2022/09/01 06:35:10;;;;;;;;;16.25;16.00;;;;;20.33;63.04;101391.97;5070730;27;50625;-67
2022/09/01 06:37:37;;;;;;;;;14.50;13.25;;;;;20.35;62.76;101374.19;5071166;27;49894;-68
2022/09/01 06:40:02;;;;;;;;;15.00;14.00;;;;;20.58;61.92;101378.44;5090461;27;49699;-68
2022/09/01 06:42:28;;;;;;;;;14.25;14.25;;;;;20.70;61.54;101389.88;5090655;27;49711;-68
2022/09/01 06:44:54;;;;;;;;;18.00;14.50;;;;;20.70;61.59;101382.75;5090190;27;51047;-73
2022/09/01 06:47:20;;;;;;;;;16.00;14.75;;;;;20.67;61.30;101368.56;5090503;27;50119;-70
2022/09/01 06:49:45;;;;;;;;;12.50;11.75;;;;;20.79;61.29;101381.75;5090440;27;49740;-69
2022/09/01 06:52:12;;;;;;;;;17.50;15.75;;;;;20.86;60.69;101383.47;5089919;27;49752;-69
2022/09/01 06:54:40;;;;;;;;;18.50;16.00;;;;;20.91;60.56;101389.63;5090400;27;49873;-69
2022/09/01 06:57:05;;;;;;;;;16.75;14.50;;;;;20.98;60.64;101394.00;5090403;27;49735;-69
2022/09/01 06:59:31;;;;;;;;;13.00;12.00;;;;;21.04;60.27;101385.91;5090122;27;49965;-69
2022/09/01 07:02:00;;;;;;;;;14.25;12.50;;;;;21.03;59.93;101388.56;5090235;27;49671;-68
2022/09/01 07:04:30;;;;;;;;;15.50;14.25;;;;;21.01;59.89;101393.94;5089930;27;50856;-69
2022/09/01 07:06:56;;;;;;;;;22.50;14.75;;;;;20.91;59.72;101357.59;5090160;27;50014;-69
2022/09/01 07:09:22;;;;;;;;;16.50;14.50;;;;;20.99;59.66;101382.41;5090087;27;49636;-69
2022/09/01 07:11:47;;;;;;;;;12.75;12.75;;;;;21.02;59.65;101371.69;5085285;27;50305;-70
2022/09/01 07:14:15;;;;;;;;;17.50;16.25;;;;;21.22;59.55;101392.78;5079522;27;50255;-72
2022/09/01 07:16:42;;;;;;;;;15.50;15.50;;;;;21.25;59.41;101382.09;5072356;27;49998;-69
2022/09/01 07:19:13;;;;;;;;;18.75;17.00;;;;;21.30;59.29;101388.25;5070274;27;49664;-69
2022/09/01 07:21:40;;;;;;;;;14.75;12.25;;;;;21.21;58.98;101380.34;5068459;27;50040;-69
2022/09/01 07:24:05;;;;;;;;;15.75;13.00;;;;;21.12;59.22;101373.31;5069786;27;49780;-70
2022/09/01 07:26:34;;;;;;;;;19.50;16.75;;;;;21.31;58.90;101394.47;5066809;27;50085;-69
2022/09/01 07:29:02;;;;;;;;;14.50;13.25;;;;;21.24;58.89;101376.78;5069646;27;49970;-73
2022/09/01 07:31:37;;;;;;;;;15.75;14.25;;;;;21.20;59.17;101383.91;5075564;27;49992;-73
2022/09/01 07:34:05;;;;;;;;;15.75;12.50;;;;;21.15;59.29;101380.44;5078758;27;49952;-78
2022/09/01 07:36:31;;;;;;;;;10.25;9.75;;;;;21.20;59.57;101391.94;5076805;27;49859;-76
2022/09/01 07:38:58;;;;;;;;;16.75;15.75;;;;;21.33;59.24;101406.06;5077377;27;49735;-78
2022/09/01 07:41:25;;;;;;;;;20.50;17.75;;;;;21.30;59.17;101406.97;5085189;27;49948;-75
2022/09/01 07:43:52;;;;;;;;;13.00;13.00;;;;;21.20;59.21;101383.03;5088771;27;49910;-75
2022/09/01 07:46:19;;;;;;;;;14.75;14.75;;;;;21.04;59.36;101351.22;5078717;27;49893;-80
2022/09/01 07:48:47;;;;;;;;;17.50;16.75;;;;;21.26;59.32;101381.22;5068343;27;49794;-76
2022/09/01 07:51:16;;;;;;;;;16.50;15.25;;;;;21.49;58.62;101407.59;5081294;27;50013;-78
2022/09/01 07:53:42;;;;;;;;;19.00;16.50;;;;;21.41;58.76;101372.97;5073322;27;50869;-74
2022/09/01 07:56:09;;;;;;;;;16.50;14.75;;;;;21.63;58.31;101402.06;5083263;27;50096;-77
2022/09/01 07:58:37;;;;;;;;;14.00;14.00;;;;;21.54;58.84;101380.84;5074156;27;49802;-78
2022/09/01 08:01:12;;;;;;;;;13.75;11.50;;;;;21.53;58.66;101376.41;5079445;27;49898;-80
2022/09/01 08:03:39;;;;;;;;;15.25;14.75;;;;;21.61;59.07;101404.75;5072940;27;52091;-74
2022/09/01 08:06:07;;;;;;;;;19.50;17.50;;;;;21.63;58.43;101405.63;5084901;27;49746;-76
2022/09/01 08:08:35;;;;;;;;;19.50;17.00;;;;;21.53;58.84;101377.28;5103854;27;49279;-74
2022/09/01 08:11:00;;;;;;;;;18.00;17.00;;;;;21.73;58.47;101387.66;5104540;27;49272;-73
2022/09/01 08:13:26;;;;;;;;;16.25;15.00;;;;;21.82;58.44;101394.66;5097048;27;50654;-75
2022/09/01 08:15:51;;;;;;;;;15.75;13.25;;;;;21.71;57.87;101377.00;5094251;27;50163;-76
2022/09/01 08:18:17;;;;;;;;;17.00;14.25;;;;;21.83;58.67;101389.28;5094211;27;49997;-74
2022/09/01 08:20:46;;;;;;;;;14.00;13.50;;;;;21.70;57.55;101358.28;5092684;27;49754;-74
2022/09/01 08:23:14;;;;;;;;;13.25;12.50;;;;;22.01;58.11;101406.84;5110596;27;52224;-74
2022/09/01 08:25:42;;;;;;;;;13.75;13.75;;;;;22.10;57.68;101406.72;5098459;27;49802;-71
2022/09/01 08:28:08;;;;;;;;;18.25;17.50;;;;;22.10;57.79;101398.69;5103747;27;49918;-76
2022/09/01 08:30:34;;;;;;;;;14.50;12.00;;;;;22.12;57.55;101415.59;5104395;27;49839;-72
2022/09/01 08:33:01;;;;;;;;;12.75;12.50;;;;;22.06;57.52;101398.72;5079569;27;51047;-75
2022/09/01 08:35:28;;;;;;;;;23.75;15.00;;;;;22.22;57.05;101409.16;5094444;27;49747;-71
2022/09/01 08:37:54;;;;;;;;;18.50;13.00;;;;;22.34;57.09;101393.81;5080554;27;50034;-72
2022/09/01 08:40:22;;;;;;;;;17.75;16.25;;;;;22.63;56.49;101412.00;5085020;27;49614;-73
2022/09/01 08:43:00;;;;;;;;;18.75;15.25;;;;;22.85;55.91;101414.28;5071541;27;50024;-73
2022/09/01 08:45:37;;;;;;;;;14.25;14.00;;;;;23.04;55.57;101413.91;5074246;27;49913;-72
2022/09/01 08:48:24;;;;;;;;;17.25;16.50;;;;;23.16;54.84;101410.09;5072920;27;49898;-72
2022/09/01 08:50:59;;;;;;;;;14.75;14.50;;;;;23.28;54.47;101400.03;5096361;27;49810;-72
2022/09/01 08:53:32;;;;;;;;;13.50;10.00;;;;;23.54;53.89;101409.25;5093189;27;50967;-71
2022/09/01 08:55:58;;;;;;;;;16.50;13.75;;;;;23.68;53.57;101399.16;5108244;27;49819;-71
2022/09/01 08:58:26;;;;;;;;;13.00;12.50;;;;;23.80;52.68;101414.94;5076004;27;49810;-73
2022/09/01 09:00:57;;;;;;;;;14.50;14.25;;;;;23.76;52.66;101402.53;5072654;27;49921;-73
2022/09/01 09:03:30;;;;;;;;;19.75;18.25;;;;;23.83;52.34;101396.09;5072451;27;50713;-72
2022/09/01 09:06:13;;;;;;;;;15.25;15.25;;;;;;;;5071253;27;49944;-72
2022/09/01 09:08:57;;;;;;;;;9.50;8.75;;;;;24.09;52.16;101422.28;5072099;27;49779;-73
2022/09/01 09:11:47;;;;;;;;;15.75;15.00;;;;;24.15;52.06;101418.59;5088956;27;49652;-72
2022/09/01 09:14:31;;;;;;;;;15.75;15.00;;;;;24.22;51.55;101415.72;5107744;27;49824;-71
2022/09/01 09:16:56;;;;;;;;;13.00;13.00;;;;;24.06;51.02;101374.09;5085682;27;49700;-72
2022/09/01 09:19:29;;;;;;;;;17.25;13.00;;;;;24.45;51.13;101417.84;5072041;27;49832;-70
2022/09/01 09:21:57;;;;;;;;;13.25;13.25;;;;;24.38;50.48;101392.06;5086220;27;49816;-71
2022/09/01 09:24:48;;;;;;;;;16.50;15.50;;;;;24.52;50.80;101414.06;5070330;27;51613;-69
2022/09/01 09:27:29;;;;;;;;;13.50;13.25;;;;;24.52;50.70;101383.66;5087177;27;49827;-70
2022/09/01 09:30:05;;;;;;;;;18.50;16.50;;;;;24.72;50.26;101407.28;5093026;27;49733;-71
2022/09/01 09:32:52;;;;;;;;;12.50;12.50;;;;;24.77;50.36;101400.84;5092786;27;49719;-70
2022/09/01 09:35:17;;;;;;;;;17.00;14.75;;;;;24.82;50.02;101401.63;5095473;27;50726;-70
2022/09/01 09:37:42;;;;;;;;;18.50;14.25;;;;;24.74;49.77;101400.94;5079749;27;49775;-69
2022/09/01 09:40:08;;;;;;;;;17.75;14.75;;;;;24.83;49.29;101398.00;5073406;27;50013;-70
2022/09/01 09:42:38;;;;;;;;;16.50;14.00;;;;;24.59;49.27;101357.50;5072245;27;49834;-70
2022/09/01 09:45:19;;;;;;;;;16.25;14.50;;;;;24.84;49.37;101385.44;5071460;27;49809;-70
2022/09/01 09:47:45;;;;;;;;;13.00;12.00;;;;;24.87;49.10;101389.84;5071737;27;49567;-69
2022/09/01 09:50:25;;;;;;;;;14.00;13.50;;;;;24.86;49.49;101385.41;5070698;27;49846;-69
2022/09/01 09:52:52;;;;;;;;;11.25;10.25;;;;;25.05;48.77;101398.28;5071728;27;49679;-70
2022/09/01 09:55:26;;;;;;;;;15.75;15.25;;;;;25.13;48.14;101395.38;5083189;27;50669;-70
2022/09/01 09:57:58;;;;;;;;;13.50;13.50;;;;;25.07;48.08;101366.88;5091498;27;49900;-68
2022/09/01 10:00:32;;;;;;;;;16.00;14.50;;;;;25.03;47.93;101364.34;5106777;27;49942;-69
2022/09/01 10:03:01;;;;;;;;;14.50;13.75;;;;;25.05;48.06;101375.91;5095365;27;49903;-69
2022/09/01 10:05:44;;;;;;;;;13.75;13.00;;;;;25.15;48.21;101384.59;5087061;27;51273;-74
2022/09/01 10:08:33;;;;;;;;;16.00;14.25;;;;;25.25;48.22;101384.25;5083181;27;49754;-69
2022/09/01 10:10:59;;;;;;;;;12.00;11.00;;;;;25.29;47.20;101377.00;5073027;27;49875;-68
2022/09/01 10:13:28;;;;;;;;;17.50;16.00;;;;;25.48;47.34;101394.34;5079783;27;49664;-68
2022/09/01 10:15:57;;;;;;;;;9.50;9.50;;;;;25.41;47.24;101371.25;5083953;27;49820;-69
2022/09/01 10:18:31;;;;;;;;;14.25;14.25;;;;;25.45;46.83;101372.91;5074969;27;49749;-69
2022/09/01 10:21:10;;;;;;;;;18.75;14.00;;;;;25.50;46.54;101380.84;5075404;27;49737;-70
2022/09/01 10:23:37;;;;;;;;;15.75;15.75;;;;;25.57;46.70;101385.94;5088222;27;49612;-70
2022/09/01 10:26:10;;;;;;;;;18.00;16.00;;;;;25.43;46.31;101361.31;5092848;27;50564;-71
2022/09/01 10:28:56;;;;;;;;;13.00;13.00;;;;;25.39;46.71;101374.00;5085417;27;49578;-69
2022/09/01 10:31:22;;;;;;;;;14.75;14.75;;;;;25.40;47.73;101394.56;5085480;27;50236;-69
2022/09/01 10:33:48;;;;;;;;;17.75;15.75;;;;;25.35;47.45;101377.69;5082327;27;49585;-66
2022/09/01 10:36:15;;;;;;;;;13.25;13.25;;;;;25.43;47.27;101374.75;5086210;27;50365;-73
2022/09/01 10:38:41;;;;;;;;;12.75;12.75;;;;;25.37;47.00;101354.31;5089145;27;49403;-73
2022/09/01 10:41:06;;;;;;;;;17.00;17.00;;;;;25.51;47.14;101370.03;5091108;27;49362;-73
2022/09/01 10:43:47;;;;;;;;;13.25;12.25;;;;;25.51;47.00;101369.16;5089687;27;49280;-71
2022/09/01 10:46:18;;;;;;;;;12.50;12.50;;;;;25.58;46.71;101370.72;5088868;27;49854;-71
2022/09/01 10:48:49;;;;;;;;;13.75;13.00;;;;;25.57;46.84;101364.44;5088331;27;49186;-72
2022/09/01 10:51:14;;;;;;;;;14.75;13.75;;;;;25.68;46.73;101372.19;5088674;27;49468;-70
2022/09/01 10:53:42;;;;;;;;;22.25;18.00;;;;;25.76;46.48;101362.06;5088996;27;49394;-70
2022/09/01 10:56:14;;;;;;;;;13.25;11.50;;;;;25.85;46.29;101364.47;5087273;27;50430;-71
2022/09/01 10:58:47;;;;;;;;;15.25;14.25;;;;;25.92;46.07;101366.03;5085762;27;49409;-70
2022/09/01 11:01:13;;;;;;;;;13.50;11.75;;;;;25.76;46.44;101340.56;5077026;27;49792;-76
2022/09/01 11:03:50;;;;;;;;;15.75;13.50;;;;;25.91;46.01;101358.91;5071036;27;49930;-75
2022/09/01 11:06:41;;;;;;;;;14.00;14.00;;;;;25.93;46.56;101358.84;5074917;27;50675;-80
2022/09/01 11:09:21;;;;;;;;;8.75;8.75;;;;;25.98;45.62;101346.13;5070408;27;49826;-72
2022/09/01 11:12:05;;;;;;;;;11.75;11.75;;;;;26.22;45.71;101350.66;5070063;27;49619;-73
2022/09/01 11:14:35;;;;;;;;;15.25;15.25;;;;;26.29;44.75;101345.06;5084054;27;49764;-73
2022/09/01 11:17:14;;;;;;;;;14.25;14.25;;;;;26.28;44.99;101335.22;5082436;27;50263;-73
2022/09/01 11:19:46;;;;;;;;;13.25;10.75;;;;;26.35;44.53;101340.34;5070158;27;50077;-72
2022/09/01 11:22:12;;;;;;;;;13.75;13.00;;;;;26.45;44.91;101338.25;5071902;27;49912;-73
2022/09/01 11:24:37;;;;;;;;;10.00;9.00;;;;;26.54;43.93;101340.59;5074219;27;49962;-73
2022/09/01 11:27:03;;;;;;;;;10.25;9.25;;;;;26.60;44.27;101334.97;5069290;27;50675;-72
2022/09/01 11:29:53;;;;;;;;;14.00;9.50;;;;;26.79;42.43;101333.38;5070078;27;49788;-73
2022/09/01 11:32:23;;;;;;;;;9.50;8.50;;;;;26.94;42.00;101337.31;5070671;27;49677;-74
2022/09/01 11:34:50;;;;;;;;;12.25;11.00;;;;;27.16;41.20;101334.69;5073041;27;50092;-72
2022/09/01 11:37:20;;;;;;;;;13.75;10.00;;;;;27.41;41.81;101328.31;5085687;27;50896;-73
2022/09/01 11:39:53;;;;;;;;;8.00;6.50;;;;;27.56;40.18;101325.88;5074488;27;49669;-72
2022/09/01 11:42:34;;;;;;;;;7.50;7.50;;;;;27.75;39.82;101322.47;5073178;27;49704;-72
2022/09/01 11:45:16;;;;;;;;;7.00;7.00;;;;;27.91;38.91;101320.88;5087833;27;49866;-72
2022/09/01 11:47:45;;;;;;;;;6.75;6.75;;;;;27.92;38.86;101304.63;5092715;27;50820;-72
2022/09/01 11:50:26;;;;;;;;;6.50;6.50;;;;;28.27;38.25;101323.78;5093622;27;49853;-74